Time;durP1;ratioP1;P1;durP2;ratioP2;P2;SDS_P1;SDS_P2;PMS_P1;PMS_P2;Temp;Humidity;BMP_temperature;BMP_pressure;BME280_temperature;BME280_humidity;BME280_pressure;Samples;Min_cycle;Max_cycle;Signal;HPM_P1;HPM_P2
2022/03/19 00:01:50;;;;;;;18.65;9.25;;;;;;;-5.93;68.18;95338.84;5113206;28;20030;-44
2022/03/19 00:04:16;;;;;;;16.65;8.52;;;;;;;-6.00;69.01;95341.59;5113096;28;20028;-44
2022/03/19 00:06:45;;;;;;;15.20;8.95;;;;;;;-5.94;68.83;95334.63;5113103;28;20552;-46
2022/03/19 00:09:10;;;;;;;15.13;9.23;;;;;;;-5.71;67.93;95332.84;5112895;28;20076;-43
2022/03/19 00:11:36;;;;;;;18.50;8.88;;;;;;;-5.58;67.63;95336.56;5105541;28;20911;-43
2022/03/19 00:14:02;;;;;;;12.73;8.32;;;;;;;-5.60;67.78;95327.34;5112530;28;20549;-50
2022/03/19 00:16:28;;;;;;;15.63;8.38;;;;;;;-5.67;67.55;95332.78;5112807;28;20039;-46
2022/03/19 00:18:53;;;;;;;14.45;8.75;;;;;;;-5.89;68.98;95283.09;5112428;28;20401;-45
2022/03/19 00:21:19;;;;;;;20.88;11.48;;;;;;;-5.56;69.70;95334.22;5112362;28;20077;-49
2022/03/19 00:23:46;;;;;;;21.30;10.13;;;;;;;-5.74;69.74;95327.50;5111445;28;20028;-47
2022/03/19 00:26:12;;;;;;;27.17;12.73;;;;;;;-5.71;69.63;95329.38;5112667;28;20026;-47
2022/03/19 00:28:40;;;;;;;23.83;13.70;;;;;;;-5.64;69.61;95334.69;5112297;28;20098;-46
2022/03/19 00:31:05;;;;;;;19.83;12.85;;;;;;;-5.54;68.50;95325.75;5112115;28;20032;-46
2022/03/19 00:33:31;;;;;;;21.80;11.02;;;;;;;-5.62;68.71;95324.31;5112088;28;20024;-46
2022/03/19 00:35:56;;;;;;;19.95;10.98;;;;;;;-5.51;68.43;95325.72;5111698;28;20118;-44
2022/03/19 00:38:22;;;;;;;17.38;10.57;;;;;;;-5.44;67.95;95322.19;5112119;28;20027;-44
2022/03/19 00:40:49;;;;;;;19.58;11.40;;;;;;;-5.55;68.28;95308.09;5102621;28;20024;-40
2022/03/19 00:43:15;;;;;;;23.58;11.60;;;;;;;-5.46;67.65;95316.47;5091509;28;20493;-41
2022/03/19 00:45:41;;;;;;;14.68;7.50;;;;;;;-5.80;68.23;95312.94;5091551;28;20489;-41
2022/03/19 00:48:07;;;;;;;11.70;7.32;;;;;;;-6.30;69.31;95313.38;5091379;28;20036;-40
2022/03/19 00:50:32;;;;;;;13.80;7.13;;;;;;;-6.23;69.45;95312.56;5091487;28;20028;-40
2022/03/19 00:52:57;;;;;;;13.02;6.82;;;;;;;-6.20;69.83;95317.16;5091779;28;20028;-40
2022/03/19 00:55:23;;;;;;;16.48;6.95;;;;;;;-6.22;70.74;95314.88;5098129;28;20030;-41
2022/03/19 00:57:49;;;;;;;14.88;7.45;;;;;;;-6.15;70.01;95314.06;5111683;27;20059;-40
2022/03/19 01:00:19;;;;;;;10.88;7.25;;;;;;;-6.15;69.77;95313.28;5111688;28;20489;-40
2022/03/19 01:02:44;;;;;;;16.55;7.55;;;;;;;-6.20;69.21;95304.50;5111451;28;20023;-40
2022/03/19 01:05:11;;;;;;;20.58;9.85;;;;;;;-6.47;70.64;95308.13;5111679;28;20110;-40
2022/03/19 01:07:45;;;;;;;22.63;13.00;;;;;;;-6.37;70.42;95302.72;5111335;28;20031;-43
2022/03/19 01:10:12;;;;;;;24.58;14.70;;;;;;;-6.21;70.35;95302.94;5107693;28;20553;-44
2022/03/19 01:12:38;;;;;;;31.10;16.00;;;;;;;-6.17;70.36;95302.91;5091322;28;20020;-44
2022/03/19 01:15:04;;;;;;;23.90;12.38;;;;;;;-6.14;70.40;95299.44;5091315;28;20078;-44
2022/03/19 01:17:29;;;;;;;26.10;14.05;;;;;;;-6.04;69.95;95303.22;5090957;28;20455;-45
2022/03/19 01:19:58;;;;;;;16.52;10.70;;;;;;;-6.08;69.63;95305.16;5090743;28;20039;-45
2022/03/19 01:22:24;;;;;;;12.77;7.57;;;;;;;-6.22;70.14;95301.44;5091244;28;20027;-45
2022/03/19 01:24:50;;;;;;;10.25;6.65;;;;;;;-6.27;70.05;95301.84;5091254;28;20459;-43
2022/03/19 01:27:16;;;;;;;13.52;7.68;;;;;;;-6.52;71.08;95306.63;5091026;28;20062;-45
2022/03/19 01:29:42;;;;;;;14.40;7.80;;;;;;;-6.78;71.10;95295.69;5090990;28;20101;-43
2022/03/19 01:32:08;;;;;;;24.65;11.85;;;;;;;-6.97;71.84;95303.06;5091035;28;20497;-44
2022/03/19 01:34:33;;;;;;;35.67;15.57;;;;;;;-6.95;71.91;95303.44;5090903;28;20024;-45
2022/03/19 01:36:59;;;;;;;28.02;12.10;;;;;;;-6.98;72.00;95303.47;5090964;28;20023;-44
2022/03/19 01:39:24;;;;;;;21.70;11.73;;;;;;;-6.80;71.89;95295.31;5090835;28;20050;-42
2022/03/19 01:41:50;;;;;;;19.33;9.15;;;;;;;-6.81;71.81;95291.09;5108352;28;20027;-44
2022/03/19 01:44:20;;;;;;;30.05;14.43;;;;;;;-6.68;71.85;95294.84;5110844;28;20031;-43
2022/03/19 01:46:59;;;;;;;22.80;12.40;;;;;;;-6.51;72.25;95291.28;5110373;28;20027;-40
2022/03/19 01:49:26;;;;;;;12.85;6.72;;;;;;;-6.40;72.54;95289.28;5110744;28;20028;-40
2022/03/19 01:51:52;;;;;;;12.70;7.68;;;;;;;-6.46;72.33;95291.63;5110644;28;20031;-41
2022/03/19 01:54:17;;;;;;;13.40;7.28;;;;;;;-6.47;71.25;95287.41;5110796;28;20123;-42
2022/03/19 01:56:44;;;;;;;14.57;8.18;;;;;;;-6.69;72.57;95256.47;5091189;28;20130;-46
2022/03/19 01:59:11;;;;;;;15.93;8.15;;;;;;;-6.44;73.21;95292.00;5089209;28;20074;-46
2022/03/19 02:01:37;;;;;;;25.90;12.48;;;;;;;-6.37;72.49;95297.34;5090360;28;20032;-43
2022/03/19 02:04:02;;;;;;;49.42;21.17;;;;;;;-6.27;72.31;95287.66;5098408;28;20083;-46
2022/03/19 02:06:28;;;;;;;54.90;23.58;;;;;;;-6.42;71.67;95287.00;5110323;28;20485;-46
2022/03/19 02:08:54;;;;;;;47.67;21.95;;;;;;;-6.48;71.40;95291.28;5108279;28;20043;-48
2022/03/19 02:11:20;;;;;;;57.55;25.50;;;;;;;-6.50;71.55;95285.53;5097179;28;20081;-44
2022/03/19 02:13:46;;;;;;;61.28;30.67;;;;;;;-6.62;71.93;95285.97;5090154;28;20024;-46
2022/03/19 02:16:12;;;;;;;56.05;24.70;;;;;;;-6.63;71.84;95289.06;5090387;28;20035;-47
2022/03/19 02:18:37;;;;;;;40.33;20.25;;;;;;;-6.57;71.72;95287.47;5090234;28;20054;-46
2022/03/19 02:21:03;;;;;;;25.00;11.30;;;;;;;-6.52;70.48;95285.13;5090114;28;20028;-47
2022/03/19 02:26:12;;;;;;;17.42;9.77;;;;;;;-7.01;71.40;95293.50;5090399;28;20433;-45
2022/03/19 02:28:38;;;;;;;42.47;21.55;;;;;;;-7.10;71.95;95290.47;5090320;28;20024;-45
2022/03/19 02:31:03;;;;;;;35.33;17.50;;;;;;;-7.21;72.09;95292.47;5090200;28;20450;-47
2022/03/19 02:33:29;;;;;;;28.70;14.55;;;;;;;-7.23;72.35;95290.16;5088744;28;20035;-46
2022/03/19 02:35:54;;;;;;;21.42;13.73;;;;;;;-6.95;71.86;95283.88;5090277;28;20020;-45
2022/03/19 02:38:20;;;;;;;45.28;21.73;;;;;;;-6.76;71.25;95290.69;5089975;28;20066;-46
2022/03/19 02:40:45;;;;;;;28.80;14.27;;;;;;;-6.83;71.23;95288.81;5089450;28;20031;-45
2022/03/19 02:43:11;;;;;;;18.40;9.07;;;;;;;-6.81;70.66;95283.81;5089974;28;20028;-45
2022/03/19 02:45:36;;;;;;;17.77;10.45;;;;;;;-6.89;71.47;95279.66;5089837;28;20115;-46
2022/03/19 02:48:02;;;;;;;22.48;11.73;;;;;;;-6.88;71.17;95281.16;5089824;28;20481;-46
2022/03/19 02:50:33;;;;;;;18.25;10.05;;;;;;;-6.84;70.46;95289.22;5089809;28;20107;-45
2022/03/19 02:53:00;;;;;;;14.88;9.63;;;;;;;-6.85;70.86;95293.81;5090178;28;20043;-44
2022/03/19 02:55:30;;;;;;;14.82;9.05;;;;;;;-6.79;70.30;95289.53;5097018;28;20394;-42
2022/03/19 02:57:55;;;;;;;8.80;5.70;;;;;;;-6.85;70.28;95293.81;5110227;28;20047;-45
2022/03/19 03:00:22;;;;;;;7.63;5.13;;;;;;;-7.02;70.96;95284.69;5114018;28;20503;-46
2022/03/19 03:02:48;;;;;;;21.27;6.15;;;;;;;-7.16;71.13;95292.03;5094943;28;20032;-45
2022/03/19 03:05:13;;;;;;;11.88;5.82;;;;;;;-7.06;70.68;95288.56;5093532;28;20023;-46
2022/03/19 03:07:39;;;;;;;10.85;6.43;;;;;;;-7.00;70.64;95293.13;5093730;28;20024;-46
2022/03/19 03:10:06;;;;;;;12.40;6.35;;;;;;;-7.31;70.95;95261.06;5096496;28;20024;-42
2022/03/19 03:12:32;;;;;;;15.52;8.25;;;;;;;-7.13;72.00;95293.94;5113719;28;20095;-42
2022/03/19 03:14:57;;;;;;;15.77;8.48;;;;;;;-7.06;70.79;95301.97;5114034;27;20047;-42
2022/03/19 03:17:23;;;;;;;12.55;8.40;;;;;;;-6.95;71.19;95292.69;5113585;28;20523;-42
2022/03/19 03:19:48;;;;;;;13.80;8.00;;;;;;;-7.01;70.98;95286.22;5112684;28;20019;-42
2022/03/19 03:22:14;;;;;;;20.02;8.82;;;;;;;-7.28;71.19;95287.13;5112730;28;20030;-42
2022/03/19 03:24:40;;;;;;;12.90;8.52;;;;;;;-7.44;71.77;95292.16;5112721;28;20023;-42
2022/03/19 03:27:05;;;;;;;12.88;8.07;;;;;;;-7.25;71.85;95286.31;5113432;28;20035;-42
2022/03/19 03:29:31;;;;;;;16.60;8.02;;;;;;;-7.40;72.45;95279.50;5113369;28;20020;-42
2022/03/19 03:31:56;;;;;;;18.88;8.77;;;;;;;-7.32;72.21;95281.00;5113731;28;20038;-41
2022/03/19 03:34:22;;;;;;;24.15;8.07;;;;;;;-7.23;71.68;95275.97;5113392;28;20088;-41
2022/03/19 03:36:47;;;;;;;15.23;8.77;;;;;;;-7.48;72.19;95275.31;5113248;28;20024;-41
2022/03/19 03:39:13;;;;;;;33.40;15.70;;;;;;;-7.39;71.81;95276.44;5113283;28;20028;-41
2022/03/19 03:41:38;;;;;;;33.20;14.27;;;;;;;-7.49;71.76;95277.22;5111608;28;20031;-41
2022/03/19 03:44:03;;;;;;;44.22;17.45;;;;;;;-7.60;72.28;95273.81;5113310;28;20028;-41
2022/03/19 03:46:29;;;;;;;38.58;17.75;;;;;;;-7.98;73.11;95275.44;5113493;27;20472;-43
2022/03/19 03:48:55;;;;;;;51.42;19.83;;;;;;;-7.90;73.53;95273.50;5113047;27;20020;-43
2022/03/19 03:51:20;;;;;;;29.70;13.20;;;;;;;-7.77;73.63;95275.41;5113211;28;20023;-41
2022/03/19 03:53:46;;;;;;;26.08;12.75;;;;;;;-7.68;72.89;95276.91;5112091;28;20020;-42
2022/03/19 03:56:12;;;;;;;35.35;14.43;;;;;;;-7.56;72.72;95279.19;5099272;28;20501;-42
2022/03/19 03:58:40;;;;;;;36.67;21.45;;;;;;;-7.41;72.52;95280.66;5092360;28;20052;-43
2022/03/19 04:01:06;;;;;;;33.28;15.93;;;;;;;-7.38;71.94;95261.09;5092730;28;20401;-43
2022/03/19 04:03:32;;;;;;;33.85;16.33;;;;;;;-7.41;72.11;95269.94;5092336;28;20034;-42
2022/03/19 04:05:57;;;;;;;44.90;17.75;;;;;;;-7.62;71.82;95278.78;5092419;28;20099;-44
2022/03/19 04:08:23;;;;;;;31.38;14.55;;;;;;;-7.57;71.67;95281.09;5092638;28;20021;-43
2022/03/19 04:10:48;;;;;;;18.88;8.07;;;;;;;-7.59;71.40;95277.25;5100633;28;20028;-42
2022/03/19 04:13:14;;;;;;;47.75;21.67;;;;;;;-7.63;71.98;95279.19;5112966;28;20023;-42
2022/03/19 04:15:40;;;;;;;22.13;10.40;;;;;;;-7.86;73.18;95279.66;5112437;28;20085;-43
2022/03/19 04:18:05;;;;;;;23.98;10.73;;;;;;;-7.81;73.02;95282.69;5112868;27;20106;-42
2022/03/19 04:20:30;;;;;;;20.60;10.55;;;;;;;-7.78;72.50;95295.34;5112796;28;20472;-42
2022/03/19 04:22:56;;;;;;;22.13;9.80;;;;;;;-7.76;72.09;95303.75;5112670;28;20492;-43
2022/03/19 04:25:23;;;;;;;18.15;10.27;;;;;;;-7.84;72.35;95299.53;5112402;28;20462;-42
2022/03/19 04:27:50;;;;;;;30.55;13.50;;;;;;;-7.81;72.33;95287.28;5112635;28;20102;-42
2022/03/19 04:30:17;;;;;;;22.40;12.23;;;;;;;-7.87;73.20;95291.50;5112304;28;20023;-42
2022/03/19 04:32:51;;;;;;;18.05;10.57;;;;;;;-8.06;73.25;95290.03;5112188;28;20031;-42
2022/03/19 04:38:05;;;;;;;34.45;11.65;;;;;;;-7.95;73.20;95290.00;5112288;28;20034;-42
2022/03/19 04:40:31;;;;;;;22.48;11.20;;;;;;;-7.78;72.72;95294.56;5112135;27;20027;-42
2022/03/19 04:42:57;;;;;;;21.52;9.75;;;;;;;-7.56;71.98;95297.94;5112087;28;20070;-42
2022/03/19 04:45:22;;;;;;;23.15;11.85;;;;;;;-7.57;71.82;95297.19;5112036;28;20032;-42
2022/03/19 04:47:48;;;;;;;21.65;10.13;;;;;;;-7.71;71.85;95281.16;5111844;27;20032;-42
2022/03/19 04:50:13;;;;;;;18.10;9.57;;;;;;;-7.83;72.30;95303.75;5112242;28;20058;-42
2022/03/19 04:52:39;;;;;;;17.55;11.30;;;;;;;-7.90;72.33;95279.66;5111919;28;20035;-41
2022/03/19 04:55:07;;;;;;;20.90;10.75;;;;;;;-7.89;72.92;95297.28;5107779;28;20020;-44
2022/03/19 04:57:32;;;;;;;26.55;14.02;;;;;;;-7.62;74.04;95299.50;5107734;28;20047;-42
2022/03/19 04:59:58;;;;;;;39.58;14.30;;;;;;;-7.40;73.95;95301.72;5112104;28;20477;-43
2022/03/19 05:02:24;;;;;;;22.92;12.77;;;;;;;-7.23;72.15;95298.19;5111701;28;20409;-43
2022/03/19 05:04:56;;;;;;;33.17;16.88;;;;;;;-7.14;71.16;95303.16;5111849;28;20027;-42
2022/03/19 05:07:23;;;;;;;73.90;30.63;;;;;;;-7.11;71.36;95303.16;5111956;28;20034;-46
2022/03/19 05:12:43;;;;;;;55.50;23.42;;;;;;;-6.70;69.92;95299.84;5091238;28;20124;-44
2022/03/19 05:15:14;;;;;;;55.22;27.98;;;;;;;-6.93;71.33;95301.13;5091485;28;20028;-44
2022/03/19 05:17:39;;;;;;;58.38;28.23;;;;;;;-6.84;71.61;95300.69;5090977;28;20048;-44
2022/03/19 05:20:06;;;;;;;53.88;26.23;;;;;;;-6.77;72.02;95294.50;5090890;28;20016;-46
2022/03/19 05:22:31;;;;;;;57.95;26.77;;;;;;;-6.61;71.80;95302.88;5091251;28;20028;-44
2022/03/19 05:24:57;;;;;;;77.07;38.63;;;;;;;-6.60;71.67;95294.41;5090868;28;20416;-42
2022/03/19 05:27:24;;;;;;;73.07;35.90;;;;;;;-6.49;72.04;95297.78;5090344;28;20037;-46
2022/03/19 05:29:50;;;;;;;64.47;33.13;;;;;;;-6.34;70.98;95293.06;5090123;28;20518;-44
2022/03/19 05:32:16;;;;;;;48.03;24.38;;;;;;;-6.27;71.16;95293.78;5090439;28;20056;-46
2022/03/19 05:34:42;;;;;;;41.38;22.65;;;;;;;-6.14;71.43;95296.75;5087450;28;20412;-47
2022/03/19 05:37:09;;;;;;;52.67;25.40;;;;;;;-5.97;71.35;95301.22;5088739;28;20030;-41
2022/03/19 05:39:34;;;;;;;43.75;25.13;;;;;;;-5.77;71.33;95298.69;5088417;28;20103;-45
2022/03/19 05:42:00;;;;;;;40.60;18.10;;;;;;;-5.60;69.98;95298.53;5087314;28;20028;-45
2022/03/19 05:44:25;;;;;;;25.27;16.48;;;;;;;-5.49;70.11;95288.41;5088310;28;20024;-47
2022/03/19 05:46:51;;;;;;;23.80;14.23;;;;;;;-5.21;70.09;95295.41;5088375;28;20583;-48
2022/03/19 05:49:17;;;;;;;25.20;14.88;;;;;;;-5.10;68.84;95293.34;5088308;28;20200;-47
2022/03/19 05:51:43;;;;;;;36.97;14.88;;;;;;;-5.06;67.84;95275.22;5088237;28;20457;-46
2022/03/19 05:54:09;;;;;;;34.78;19.25;;;;;;;-4.99;68.18;95291.28;5107495;28;20119;-46
2022/03/19 05:56:36;;;;;;;55.10;25.95;;;;;;;-4.73;68.36;95292.47;5090978;28;20028;-47
2022/03/19 05:59:02;;;;;;;64.93;35.05;;;;;;;-5.09;69.16;95292.16;5088162;28;20109;-45
2022/03/19 06:01:29;;;;;;;54.13;22.40;;;;;;;-4.65;68.75;95289.28;5088168;28;20052;-45
2022/03/19 06:03:55;;;;;;;64.10;30.30;;;;;;;-4.38;68.14;95283.91;5088048;28;20409;-44
2022/03/19 06:06:21;;;;;;;83.35;40.20;;;;;;;-4.03;67.98;95286.00;5088598;28;20035;-45
2022/03/19 06:08:47;;;;;;;35.92;17.80;;;;;;;-3.42;67.71;95291.88;5086394;28;20028;-42
2022/03/19 06:11:12;;;;;;;27.50;15.20;;;;;;;-2.81;65.26;95284.13;5100077;28;20073;-41
2022/03/19 06:13:38;;;;;;;20.08;11.68;;;;;;;-2.39;64.26;95287.84;5107969;28;20039;-41
2022/03/19 06:16:04;;;;;;;29.17;14.88;;;;;;;-1.92;62.33;95277.47;5107957;28;20042;-43
2022/03/19 06:18:29;;;;;;;25.85;14.75;;;;;;;-1.49;61.62;95277.91;5108710;28;20087;-42
2022/03/19 06:20:56;;;;;;;31.58;15.32;;;;;;;-0.93;59.02;95286.47;5107215;28;20077;-43
2022/03/19 06:23:24;;;;;;;33.88;16.08;;;;;;;-0.61;57.70;95272.78;5107994;28;20031;-42
2022/03/19 06:25:50;;;;;;;21.98;12.60;;;;;;;-0.21;55.63;95278.53;5108152;28;20089;-42
2022/03/19 06:28:17;;;;;;;23.75;12.82;;;;;;;0.66;54.70;95290.44;5108207;28;20042;-42
2022/03/19 06:30:42;;;;;;;25.08;14.77;;;;;;;1.76;51.40;95287.22;5107076;28;20032;-42
2022/03/19 06:33:08;;;;;;;23.98;13.85;;;;;;;2.89;47.75;95283.41;5108612;28;20095;-43
2022/03/19 06:38:19;;;;;;;18.00;12.77;;;;;;;4.99;42.04;95282.16;5111141;28;20095;-42
2022/03/19 06:40:44;;;;;;;19.58;12.02;;;;;;;5.83;39.81;95282.44;5111771;27;20036;-42
2022/03/19 06:43:10;;;;;;;19.25;10.77;;;;;;;6.95;36.62;95269.91;5112515;28;20051;-41
2022/03/19 06:45:37;;;;;;;25.08;18.65;;;;;;;7.67;34.89;95253.41;5112109;28;20101;-42
2022/03/19 06:48:03;;;;;;;19.60;13.20;;;;;;;8.18;34.37;95265.09;5111939;28;20019;-43
2022/03/19 06:50:28;;;;;;;21.10;13.32;;;;;;;9.28;32.29;95260.69;5091501;28;20063;-43
2022/03/19 06:52:54;;;;;;;19.48;13.13;;;;;;;10.25;30.41;95262.59;5091779;28;20027;-40
2022/03/19 06:55:19;;;;;;;22.08;15.32;;;;;;;10.89;29.52;95269.78;5104419;28;20512;-42
2022/03/19 06:57:45;;;;;;;28.60;21.05;;;;;;;11.78;27.01;95268.13;5090394;28;20140;-42
2022/03/19 07:00:11;;;;;;;31.58;21.58;;;;;;;11.67;26.77;95264.69;5090478;28;20028;-40
2022/03/19 07:02:50;;;;;;;24.75;17.88;;;;;;;12.54;25.58;95262.47;5103709;28;20276;-40
2022/03/19 07:05:21;;;;;;;;;;;;;;;13.01;24.38;95262.28;5113183;28;20015;-42
2022/03/19 07:07:47;;;;;;;11.82;10.13;;;;;;;13.36;22.93;95249.00;5113032;28;20002;-40
2022/03/19 07:10:15;;;;;;;10.57;8.10;;;;;;;14.32;22.81;95261.78;5112767;28;20077;-40
2022/03/19 07:12:43;;;;;;;14.73;11.55;;;;;;;14.37;22.41;95257.41;5112735;28;20027;-40
2022/03/19 07:15:13;;;;;;;18.13;11.90;;;;;;;12.56;23.18;95265.50;5112703;28;20031;-40
2022/03/19 07:17:39;;;;;;;16.30;12.27;;;;;;;10.64;25.78;95269.56;5112641;28;20030;-40
2022/03/19 07:20:06;;;;;;;18.10;12.02;;;;;;;10.14;26.22;95274.38;5112952;28;20023;-40
2022/03/19 07:22:59;;;;;;;22.42;13.52;;;;;;;9.08;29.14;95262.38;5112618;28;20053;-40
2022/03/19 07:25:45;;;;;;;16.92;11.68;;;;;;;10.15;27.77;95262.09;5112602;28;20038;-40
2022/03/19 07:28:14;;;;;;;19.50;12.45;;;;;;;10.20;27.80;95271.63;5090891;28;20129;-40
2022/03/19 07:30:40;;;;;;;19.10;12.73;;;;;;;9.50;28.83;95271.78;5091955;28;20051;-39
2022/03/19 07:33:06;;;;;;;15.75;10.05;;;;;;;10.36;28.17;95257.81;5091158;28;20681;-39
2022/03/19 07:35:31;;;;;;;13.90;10.23;;;;;;;10.93;26.92;95270.25;5091500;28;20019;-39
2022/03/19 07:38:02;;;;;;;13.73;10.18;;;;;;;9.69;27.28;95267.28;5090526;28;20031;-39
2022/03/19 07:43:12;;;;;;;15.65;10.50;;;;;;;9.47;29.01;95254.22;5110909;28;20100;-40
2022/03/19 07:45:39;;;;;;;17.13;8.27;;;;;;;10.96;26.28;95260.97;5098040;27;20082;-40
2022/03/19 07:48:05;;;;;;;9.10;7.07;;;;;;;11.04;24.18;95257.16;5089828;28;20748;-39
2022/03/19 07:50:31;;;;;;;9.60;7.35;;;;;;;9.79;25.36;95261.03;5089790;28;20016;-39
2022/03/19 07:52:57;;;;;;;9.25;7.53;;;;;;;10.23;26.19;95263.09;5091264;28;20096;-40
2022/03/19 07:55:24;;;;;;;9.02;7.35;;;;;;;10.85;23.24;95270.00;5098352;28;20051;-39
2022/03/19 07:57:49;;;;;;;15.40;7.30;;;;;;;11.32;23.81;95262.56;5111747;28;20123;-40
2022/03/19 08:00:15;;;;;;;12.18;8.23;;;;;;;9.81;25.21;95274.34;5112161;28;20106;-40
2022/03/19 08:02:42;;;;;;;10.27;8.27;;;;;;;10.78;25.38;95267.78;5111868;28;20507;-40
2022/03/19 08:05:08;;;;;;;11.70;7.88;;;;;;;11.91;24.54;95256.47;5111737;28;20784;-40
2022/03/19 08:07:34;;;;;;;14.25;10.43;;;;;;;12.09;22.91;95261.34;5111854;28;20074;-40
2022/03/19 08:10:00;;;;;;;15.95;7.95;;;;;;;13.40;22.72;95257.03;5111799;28;20126;-40
2022/03/19 08:12:26;;;;;;;22.52;14.15;;;;;;;12.87;21.55;95258.63;5111715;28;20169;-40
2022/03/19 08:14:51;;;;;;;13.07;7.55;;;;;;;12.62;21.19;95259.91;5111644;28;20478;-40
2022/03/19 08:17:17;;;;;;;9.20;7.70;;;;;;;12.90;21.54;95258.34;5111227;28;20075;-40
2022/03/19 08:19:43;;;;;;;39.70;24.27;;;;;;;13.74;20.86;95266.44;5110005;28;20032;-40
2022/03/19 08:22:08;;;;;;;10.75;7.15;;;;;;;11.73;21.30;95266.16;5111301;28;20030;-40
2022/03/19 08:24:35;;;;;;;17.90;12.02;;;;;;;10.27;23.08;95263.59;5111550;28;20027;-40
2022/03/19 08:27:01;;;;;;;11.95;8.20;;;;;;;8.62;25.02;95270.16;5111305;28;20063;-39
2022/03/19 08:29:27;;;;;;;10.23;7.75;;;;;;;8.04;26.48;95271.47;5111004;28;20051;-39
2022/03/19 08:31:53;;;;;;;10.57;7.90;;;;;;;8.33;26.02;95271.25;5111292;27;20030;-39
2022/03/19 08:34:18;;;;;;;13.70;9.05;;;;;;;8.98;24.74;95271.34;5103149;28;20076;-39
2022/03/19 08:36:44;;;;;;;10.77;7.65;;;;;;;7.39;27.32;95269.63;5107416;28;20044;-39
2022/03/19 08:41:53;;;;;;;10.27;8.07;;;;;;;6.41;28.72;95265.91;5099209;28;20093;-39
2022/03/19 08:44:19;;;;;;;12.43;7.88;;;;;;;6.08;28.94;95277.19;5109284;28;20756;-38
2022/03/19 08:46:44;;;;;;;16.05;8.63;;;;;;;5.77;30.72;95279.63;5110664;28;20504;-39
2022/03/19 08:49:10;;;;;;;10.90;7.55;;;;;;;5.03;31.47;95269.81;5110239;28;20088;-39
2022/03/19 08:51:41;;;;;;;10.98;7.47;;;;;;;4.70;32.26;95274.63;5110381;28;20031;-38
2022/03/19 08:54:12;;;;;;;12.57;7.32;;;;;;;4.52;33.19;95277.50;5110455;28;20130;-41
2022/03/19 08:56:38;;;;;;;16.58;8.02;;;;;;;4.11;32.28;95276.34;5092793;28;20110;-41
2022/03/19 08:59:04;;;;;;;11.20;8.27;;;;;;;3.93;34.09;95276.41;5089998;28;20119;-40
2022/03/19 09:01:30;;;;;;;12.70;8.50;;;;;;;4.18;33.34;95273.25;5089719;28;20039;-41
2022/03/19 09:03:55;;;;;;;10.82;7.43;;;;;;;4.22;34.61;95271.09;5089770;28;20028;-41
2022/03/19 09:06:21;;;;;;;11.48;7.45;;;;;;;4.06;33.83;95270.72;5090213;28;20042;-41
2022/03/19 09:08:49;;;;;;;24.15;13.13;;;;;;;3.85;33.74;95273.22;5090111;28;20023;-40
2022/03/19 09:11:16;;;;;;;10.65;7.35;;;;;;;3.77;34.53;95279.50;5102203;28;20031;-40
2022/03/19 09:13:42;;;;;;;13.98;8.70;;;;;;;3.27;34.89;95274.78;5109960;28;20028;-40
2022/03/19 09:16:07;;;;;;;10.73;7.03;;;;;;;2.86;34.71;95268.72;5109058;28;20038;-40
2022/03/19 09:18:33;;;;;;;11.07;7.63;;;;;;;2.90;36.27;95272.03;5108348;28;20031;-39
2022/03/19 09:20:58;;;;;;;14.02;8.30;;;;;;;3.07;36.13;95267.78;5108650;28;20031;-40
2022/03/19 09:23:24;;;;;;;12.75;7.03;;;;;;;3.52;34.85;95277.13;5108867;28;20617;-40
2022/03/19 09:25:50;;;;;;;11.23;6.97;;;;;;;3.22;35.87;95272.66;5108885;28;20527;-41
2022/03/19 09:28:15;;;;;;;16.13;7.65;;;;;;;3.02;37.29;95264.94;5108199;28;20778;-40
2022/03/19 09:30:41;;;;;;;9.68;6.80;;;;;;;2.81;36.55;95274.78;5108474;28;20029;-40
2022/03/19 09:33:07;;;;;;;14.55;8.25;;;;;;;2.94;36.89;95278.13;5108670;28;20035;-40
2022/03/19 09:35:33;;;;;;;15.40;9.18;;;;;;;3.29;38.39;95270.34;5108270;28;20024;-40
2022/03/19 09:37:58;;;;;;;13.32;7.80;;;;;;;3.44;36.88;95273.22;5098177;28;20024;-39
2022/03/19 09:40:24;;;;;;;9.18;7.07;;;;;;;3.51;36.96;95276.38;5092799;28;20020;-40
2022/03/19 09:42:50;;;;;;;16.35;9.00;;;;;;;3.01;37.07;95274.34;5107902;28;20023;-40
2022/03/19 09:45:20;;;;;;;13.68;9.52;;;;;;;2.87;38.62;95274.94;5107953;28;20051;-40
2022/03/19 09:47:46;;;;;;;23.50;15.52;;;;;;;2.85;39.54;95267.22;5107683;28;20136;-40
2022/03/19 09:50:12;;;;;;;21.65;14.25;;;;;;;2.85;38.80;95258.28;5107245;28;20028;-40
2022/03/19 09:52:41;;;;;;;14.82;9.85;;;;;;;2.89;39.09;95267.81;5107478;28;20055;-40
2022/03/19 09:55:08;;;;;;;16.15;12.40;;;;;;;2.59;39.25;95238.72;5107291;28;20243;-40
2022/03/19 09:57:34;;;;;;;19.98;14.68;;;;;;;2.60;38.41;95266.75;5091487;28;20536;-40
2022/03/19 10:00:00;;;;;;;14.90;9.52;;;;;;;2.77;38.29;95265.25;5086031;28;20024;-40
2022/03/19 10:02:25;;;;;;;12.65;7.55;;;;;;;2.62;38.12;95275.22;5086831;28;20028;-40
2022/03/19 10:04:52;;;;;;;25.08;12.80;;;;;;;2.66;40.26;95273.88;5086669;28;20092;-40
2022/03/19 10:10:09;;;;;;;9.65;6.95;;;;;;;2.47;38.13;95268.84;5087944;28;20112;-40
2022/03/19 10:12:36;;;;;;;11.98;7.72;;;;;;;2.68;37.69;95266.00;5099246;28;20089;-40
2022/03/19 10:15:09;;;;;;;14.45;8.90;;;;;;;3.08;38.30;95269.31;5085297;28;20027;-40
2022/03/19 10:17:37;;;;;;;14.35;8.32;;;;;;;3.24;38.10;95242.91;5084307;28;20089;-40
2022/03/19 10:20:12;;;;;;;11.02;7.95;;;;;;;3.39;38.54;95241.06;5084485;28;20053;-41
2022/03/19 10:22:39;;;;;;;18.98;9.65;;;;;;;3.56;38.18;95243.00;5083916;28;20089;-40
2022/03/19 10:25:10;;;;;;;11.57;8.02;;;;;;;3.68;36.50;95260.41;5084336;28;20029;-39
2022/03/19 10:27:40;;;;;;;18.20;15.35;;;;;;;3.87;36.37;95259.13;5084503;28;20115;-40
2022/03/19 10:30:16;;;;;;;13.98;7.82;;;;;;;3.99;36.09;95252.69;5083748;28;20028;-39
2022/03/19 10:32:44;;;;;;;12.63;7.82;;;;;;;3.91;35.86;95246.06;5084563;28;20042;-39
2022/03/19 10:35:42;;;;;;;10.52;7.55;;;;;;;3.79;35.88;95250.50;5099423;28;20047;-40
2022/03/19 10:38:23;;;;;;;12.02;8.88;;;;;;;2.82;33.30;95253.72;5080572;28;20144;-40
2022/03/19 10:40:51;;;;;;;13.07;8.75;;;;;;;2.60;34.30;95250.38;5104205;28;20032;-40
2022/03/19 10:43:19;;;;;;;10.60;8.13;;;;;;;2.29;34.40;95253.22;5104719;28;20055;-40
2022/03/19 10:45:49;;;;;;;14.02;8.50;;;;;;;2.14;34.15;95244.09;5104460;28;20420;-40
2022/03/19 10:48:19;;;;;;;11.23;7.22;;;;;;;2.29;36.08;95245.03;5104637;28;20035;-40
2022/03/19 10:50:44;;;;;;;9.00;6.63;;;;;;;2.29;33.47;95250.50;5104433;28;20034;-40
2022/03/19 10:53:11;;;;;;;9.77;7.40;;;;;;;2.28;34.57;95243.50;5104507;28;20040;-41
2022/03/19 10:55:36;;;;;;;9.85;6.40;;;;;;;2.59;33.48;95233.25;5094608;28;20077;-41
2022/03/19 10:58:03;;;;;;;8.55;6.18;;;;;;;2.72;34.03;95241.28;5084258;28;20036;-38
2022/03/19 11:00:28;;;;;;;10.52;5.63;;;;;;;2.88;34.28;95241.00;5083399;28;20063;-41
2022/03/19 11:02:57;;;;;;;11.32;6.80;;;;;;;3.57;33.57;95235.56;5083726;28;20466;-41
2022/03/19 11:05:24;;;;;;;9.13;5.60;;;;;;;3.98;32.66;95223.09;5083924;28;20559;-41
2022/03/19 11:07:51;;;;;;;10.65;6.72;;;;;;;4.01;34.36;95214.72;5085210;28;20092;-41
2022/03/19 11:10:19;;;;;;;9.02;6.82;;;;;;;4.11;32.49;95220.91;5089651;28;20099;-41
2022/03/19 11:12:52;;;;;;;10.43;7.03;;;;;;;4.81;32.57;95227.59;5105631;28;20074;-41
2022/03/19 11:15:19;;;;;;;7.63;5.93;;;;;;;6.08;30.33;95227.81;5105138;28;20024;-41
2022/03/19 11:17:48;;;;;;;16.30;9.25;;;;;;;7.35;29.65;95223.13;5106747;28;20031;-41
2022/03/19 11:20:14;;;;;;;15.43;8.27;;;;;;;8.56;28.00;95191.53;5103654;28;20027;-41
2022/03/19 11:22:46;;;;;;;15.77;9.93;;;;;;;9.11;27.69;95206.28;5101392;28;20127;-41
2022/03/19 11:25:27;;;;;;;15.23;7.95;;;;;;;9.52;26.10;95206.59;5090154;28;20059;-41
2022/03/19 11:28:13;;;;;;;8.30;6.15;;;;;;;8.88;25.47;95212.22;5091504;28;20416;-40
2022/03/19 11:30:45;;;;;;;12.25;7.55;;;;;;;8.61;26.70;95221.09;5103197;28;20055;-41
2022/03/19 11:33:18;;;;;;;6.68;5.68;;;;;;;8.30;25.52;95211.66;5110139;28;20028;-40
2022/03/19 11:35:53;;;;;;;14.43;7.50;;;;;;;8.10;29.01;95206.25;5109649;28;20031;-41
2022/03/19 11:38:23;;;;;;;6.90;5.03;;;;;;;8.78;25.95;95203.41;5110066;28;20023;-41
2022/03/19 11:40:54;;;;;;;8.07;5.72;;;;;;;7.28;26.13;95212.56;5109291;28;20019;-41
2022/03/19 11:43:35;;;;;;;12.27;8.15;;;;;;;7.33;27.85;95211.88;5110032;28;20039;-40